createdAt,value
2019-06-07T00:01:49.841Z,101339.15
2019-06-07T00:04:22.197Z,101344.45
2019-06-07T00:06:54.469Z,101346.01
2019-06-07T00:09:26.737Z,101337.14
2019-06-07T00:11:59.445Z,101341.42
2019-06-07T00:14:31.695Z,101335.86
2019-06-07T00:17:05.101Z,101336.74
2019-06-07T00:19:37.378Z,101339.36
2019-06-07T00:22:18.423Z,101335.57
2019-06-07T00:24:43.703Z,101342.59
2019-06-07T00:27:18.278Z,101339.73
2019-06-07T00:29:49.963Z,101329.27
2019-06-07T00:32:22.460Z,101333.96
2019-06-07T00:34:54.722Z,101342.27
2019-06-07T00:37:27.016Z,101340.03
2019-06-07T00:40:13.902Z,101332.06
2019-06-07T00:42:33.274Z,101332.63
2019-06-07T00:45:11.213Z,101329.77
2019-06-07T00:47:44.263Z,101330.82
2019-06-07T00:50:20.421Z,101327.67
2019-06-07T00:53:14.799Z,101326.98
2019-06-07T00:55:27.671Z,101332.28
2019-06-07T00:57:59.365Z,101327.89
2019-06-07T01:00:31.781Z,101327.11
2019-06-07T01:03:04.196Z,101327.11
2019-06-07T01:05:36.531Z,101326.95
2019-06-07T01:08:08.833Z,101319.80
2019-06-07T01:10:53.001Z,101321.08
2019-06-07T01:13:16.718Z,101320.80
2019-06-07T01:15:49.663Z,101316.58
2019-06-07T01:18:43.550Z,101311.92
2019-06-07T01:20:55.914Z,101315.11
2019-06-07T01:24:04.672Z,101316.38
2019-06-07T01:26:02.061Z,101319.45
2019-06-07T01:28:34.367Z,101327.53
2019-06-07T01:31:06.669Z,101322.14
2019-06-07T01:33:50.806Z,101323.86
2019-06-07T01:36:17.779Z,101328.28
2019-06-07T01:38:48.757Z,101331.38
2019-06-07T01:41:24.393Z,101330.76
2019-06-07T01:43:55.191Z,101330.88
2019-06-07T01:46:28.712Z,101338.84
2019-06-07T01:49:01.389Z,101340.18
2019-06-07T01:51:33.680Z,101340.75
2019-06-07T01:54:49.282Z,101347.78
2019-06-07T01:56:40.235Z,101350.17
2019-06-07T01:59:12.523Z,101349.98
2019-06-07T02:01:45.267Z,101345.46
2019-06-07T02:04:21.639Z,101353.27
2019-06-07T02:06:51.713Z,101351.14
2019-06-07T02:09:27.993Z,101356.34
2019-06-07T02:11:58.160Z,101355.55
2019-06-07T02:14:33.551Z,101357.09
2019-06-07T02:17:07.082Z,101350.77
2019-06-07T02:19:39.476Z,101346.24
2019-06-07T02:22:11.811Z,101346.14
2019-06-07T02:24:44.211Z,101354.80
2019-06-07T02:27:16.638Z,101357.68
2019-06-07T02:29:49.020Z,101358.65
2019-06-07T02:32:22.317Z,101365.01
2019-06-07T02:34:55.395Z,101361.23
2019-06-07T02:37:33.607Z,101365.41
2019-06-07T02:40:01.757Z,101364.70
2019-06-07T02:42:38.992Z,101357.33
2019-06-07T02:45:10.748Z,101359.46
2019-06-07T02:47:46.342Z,101360.98
2019-06-07T02:50:19.607Z,101365.70
2019-06-07T02:52:52.981Z,101360.80
2019-06-07T02:55:29.082Z,101353.69
2019-06-07T02:57:59.292Z,101353.73
2019-06-07T03:01:00.067Z,101354.02
2019-06-07T03:03:18.039Z,101347.83
2019-06-07T03:05:51.386Z,101349.00
2019-06-07T03:08:23.760Z,101351.34
2019-06-07T03:10:57.413Z,101354.59
2019-06-07T03:13:34.909Z,101351.51
2019-06-07T03:16:08.313Z,101350.08
2019-06-07T03:18:57.539Z,101358.61
2019-06-07T03:21:32.026Z,101359.10
2019-06-07T03:24:05.737Z,101370.54
2019-06-07T03:27:30.490Z,101365.41
2019-06-07T03:29:15.606Z,101360.91
2019-06-07T03:31:48.141Z,101363.55
2019-06-07T03:34:20.366Z,101366.94
2019-06-07T03:36:52.627Z,101358.36
2019-06-07T03:39:25.294Z,101359.52
2019-06-07T03:42:06.133Z,101354.66
2019-06-07T03:44:32.976Z,101351.20
2019-06-07T03:47:05.806Z,101361.61
2019-06-07T03:49:42.117Z,101353.94
2019-06-07T03:52:12.002Z,101357.87
2019-06-07T03:54:44.298Z,101365.67
2019-06-07T03:57:17.642Z,101361.70
2019-06-07T03:59:49.916Z,101354.80
2019-06-07T04:02:22.147Z,101360.07
2019-06-07T04:04:54.321Z,101359.08
2019-06-07T04:07:28.985Z,101359.09
2019-06-07T04:10:01.618Z,101355.16
2019-06-07T04:12:38.638Z,101355.95
2019-06-07T04:15:07.979Z,101362.64
2019-06-07T04:18:00.481Z,101363.13
2019-06-07T04:20:15.616Z,101358.37
2019-06-07T04:22:47.998Z,101357.80
2019-06-07T04:25:20.239Z,101356.88
2019-06-07T04:27:54.479Z,101352.09
2019-06-07T04:30:32.128Z,101349.98
2019-06-07T04:33:03.792Z,101348.91
2019-06-07T04:35:39.177Z,101347.26
2019-06-07T04:38:14.619Z,101345.59
2019-06-07T04:40:47.368Z,101345.11
2019-06-07T04:43:19.716Z,101341.20
2019-06-07T04:45:52.043Z,101346.11
2019-06-07T04:48:30.926Z,101354.45
2019-06-07T04:51:05.561Z,101349.94
2019-06-07T04:53:40.897Z,101345.64
2019-06-07T04:56:11.867Z,101348.13
2019-06-07T04:58:44.148Z,101336.93
2019-06-07T05:01:27.323Z,101346.91
2019-06-07T05:03:50.608Z,101349.48
2019-06-07T05:06:25.115Z,101346.57
2019-06-07T05:08:58.730Z,101346.39
2019-06-07T05:11:31.993Z,101340.23
2019-06-07T05:14:06.219Z,101331.19
2019-06-07T05:16:44.767Z,101326.94
2019-06-07T05:19:18.410Z,101327.89
2019-06-07T05:22:03.731Z,101327.28
2019-06-07T05:24:34.825Z,101327.63
2019-06-07T05:27:07.006Z,101333.00
2019-06-07T05:29:41.642Z,101333.89
2019-06-07T05:32:14.648Z,101328.44
2019-06-07T05:34:47.391Z,101334.02
2019-06-07T05:37:19.695Z,101330.27
2019-06-07T05:39:53.964Z,101334.23
2019-06-07T05:42:28.359Z,101337.86
2019-06-07T05:45:00.628Z,101334.94
2019-06-07T05:47:38.451Z,101331.41
2019-06-07T05:50:38.017Z,101332.63
2019-06-07T05:52:44.353Z,101340.61
2019-06-07T05:55:13.585Z,101340.11
2019-06-07T05:57:50.635Z,101343.66
2019-06-07T06:00:19.793Z,101342.02
2019-06-07T06:03:04.854Z,101349.55
2019-06-07T06:05:34.194Z,101350.41
2019-06-07T06:07:59.295Z,101363.09
2019-06-07T06:10:31.604Z,101359.23
2019-06-07T06:13:04.087Z,101358.02
2019-06-07T06:15:45.320Z,101351.02
2019-06-07T06:18:11.547Z,101352.37
2019-06-07T06:21:04.913Z,101355.53
2019-06-07T06:23:17.820Z,101349.78
2019-06-07T06:25:57.028Z,101354.55
2019-06-07T06:28:27.415Z,101353.31
2019-06-07T06:31:00.827Z,101354.05
2019-06-07T06:33:34.724Z,101348.66
2019-06-07T06:36:06.862Z,101357.59
2019-06-07T06:38:39.676Z,101358.59
2019-06-07T06:41:16.247Z,101357.39
2019-06-07T06:43:49.371Z,101365.42
2019-06-07T06:46:37.499Z,101363.20
2019-06-07T06:48:55.327Z,101357.94
2019-06-07T06:51:26.904Z,101355.82
2019-06-07T06:54:00.165Z,101360.63
2019-06-07T06:56:32.695Z,101357.20
2019-06-07T07:01:42.538Z,101365.01
2019-06-07T07:04:14.606Z,101364.60
2019-06-07T07:06:48.064Z,101353.81
2019-06-07T07:09:21.367Z,101355.42
2019-06-07T07:12:10.763Z,101356.30
2019-06-07T07:14:45.560Z,101354.86
2019-06-07T07:17:17.401Z,101358.72
2019-06-07T07:19:55.293Z,101358.89
2019-06-07T07:22:27.499Z,101361.80
2019-06-07T07:25:03.058Z,101369.32
2019-06-07T07:27:35.261Z,101372.00
2019-06-07T07:30:36.122Z,101375.09
2019-06-07T07:32:46.733Z,101373.48
2019-06-07T07:35:19.134Z,101383.27
2019-06-07T07:37:57.034Z,101368.87
2019-06-07T07:42:59.638Z,101366.47
2019-06-07T07:45:32.044Z,101372.78
2019-06-07T07:48:15.475Z,101368.74
2019-06-07T07:50:40.105Z,101365.75
2019-06-07T07:53:12.423Z,101365.44
2019-06-07T07:55:45.760Z,101358.09
2019-06-07T07:58:21.225Z,101362.61
2019-06-07T08:01:07.159Z,101363.03
2019-06-07T08:03:27.531Z,101356.86
2019-06-07T08:06:00.361Z,101359.16
2019-06-07T08:08:35.070Z,101353.20
2019-06-07T08:11:07.613Z,101346.91
2019-06-07T08:13:40.574Z,101354.89
2019-06-07T08:16:19.050Z,101360.33
2019-06-07T08:18:58.523Z,101364.06
2019-06-07T08:21:29.578Z,101377.09
2019-06-07T08:24:05.622Z,101364.22
2019-06-07T08:26:39.819Z,101361.48
2019-06-07T08:29:12.639Z,101359.01
2019-06-07T08:31:50.827Z,101367.17
2019-06-07T08:34:22.740Z,101375.27
2019-06-07T08:36:59.156Z,101366.63
2019-06-07T08:39:32.491Z,101371.84
2019-06-07T08:42:21.261Z,101374.47
2019-06-07T08:44:41.222Z,101370.23
2019-06-07T08:47:20.518Z,101364.52
2019-06-07T08:49:50.677Z,101365.63
2019-06-07T08:52:23.772Z,101357.31
2019-06-07T08:55:03.317Z,101360.64
2019-06-07T08:57:33.000Z,101360.34
2019-06-07T09:00:42.416Z,101345.57
2019-06-07T09:02:41.944Z,101345.39
2019-06-07T09:05:14.924Z,101342.97
2019-06-07T09:07:47.341Z,101355.66
2019-06-07T09:10:22.302Z,101342.29
2019-06-07T09:13:00.328Z,101344.80
2019-06-07T09:15:30.055Z,101346.61
2019-06-07T09:18:37.815Z,101339.07
2019-06-07T09:20:45.964Z,101339.53
2019-06-07T09:23:18.557Z,101337.98
2019-06-07T09:26:01.363Z,101329.73
2019-06-07T09:28:26.273Z,101333.39
2019-06-07T09:31:07.846Z,101335.70
2019-06-07T09:33:34.660Z,101333.26
2019-06-07T09:36:12.846Z,101327.81
2019-06-07T09:38:45.808Z,101329.97
2019-06-07T09:41:19.239Z,101324.56
2019-06-07T09:44:04.740Z,101317.91
2019-06-07T09:46:26.030Z,101328.61
2019-06-07T09:49:28.942Z,101312.43
2019-06-07T09:51:33.752Z,101320.35
2019-06-07T09:54:10.863Z,101315.88
2019-06-07T09:56:41.192Z,101317.09
2019-06-07T09:59:14.834Z,101320.02
2019-06-07T10:01:47.298Z,101330.88
2019-06-07T10:04:31.387Z,101319.84
2019-06-07T10:07:04.056Z,101326.35
2019-06-07T10:12:12.652Z,101337.54
2019-06-07T10:14:49.724Z,101334.66
2019-06-07T10:17:27.103Z,101336.81
2019-06-07T10:20:02.567Z,101338.55
2019-06-07T10:22:41.061Z,101339.97
2019-06-07T10:25:17.706Z,101339.23
2019-06-07T10:27:56.076Z,101343.78
2019-06-07T10:30:33.053Z,101341.22
2019-06-07T10:33:06.819Z,101343.67
2019-06-07T10:35:40.710Z,101338.19
2019-06-07T10:38:20.846Z,101340.58
2019-06-07T10:40:54.225Z,101345.34
2019-06-07T10:43:26.665Z,101341.27
2019-06-07T10:46:01.360Z,101333.62
2019-06-07T10:48:34.221Z,101323.86
2019-06-07T10:51:06.581Z,101322.94
2019-06-07T10:53:39.721Z,101321.27
2019-06-07T10:56:13.434Z,101317.83
2019-06-07T10:58:45.935Z,101318.05
2019-06-07T11:01:18.258Z,101308.67
2019-06-07T11:03:50.528Z,101297.84
2019-06-07T11:06:22.929Z,101297.05
2019-06-07T11:08:55.419Z,101304.21
2019-06-07T11:11:28.016Z,101303.06
2019-06-07T11:14:00.669Z,101298.91
2019-06-07T11:16:33.940Z,101304.25
2019-06-07T11:19:08.045Z,101300.48
2019-06-07T11:21:40.845Z,101299.84
2019-06-07T11:24:24.732Z,101298.92
2019-06-07T11:27:00.213Z,101298.80
2019-06-07T11:29:33.706Z,101289.66
2019-06-07T11:32:06.376Z,101295.19
2019-06-07T11:34:43.226Z,101300.98
2019-06-07T11:37:16.202Z,101303.95
2019-06-07T11:39:48.975Z,101295.56
2019-06-07T11:42:23.873Z,101289.61
2019-06-07T11:44:57.498Z,101291.58
2019-06-07T11:47:30.086Z,101284.76
2019-06-07T11:50:02.569Z,101285.51
2019-06-07T11:52:38.833Z,101275.93
2019-06-07T11:55:13.572Z,101273.02
2019-06-07T11:57:48.389Z,101267.14
2019-06-07T12:00:24.317Z,101271.63
2019-06-07T12:02:56.701Z,101272.67
2019-06-07T12:05:29.292Z,101270.95
2019-06-07T12:08:02.765Z,101269.70
2019-06-07T12:10:42.789Z,101268.95
2019-06-07T12:13:19.555Z,101273.91
2019-06-07T12:15:57.523Z,101264.78
2019-06-07T12:18:30.030Z,101262.38
2019-06-07T12:21:02.361Z,101265.70
2019-06-07T12:23:37.253Z,101266.70
2019-06-07T12:26:10.698Z,101259.38
2019-06-07T12:28:43.021Z,101261.02
2019-06-07T12:31:15.367Z,101248.58
2019-06-07T12:33:49.278Z,101243.06
2019-06-07T12:36:22.006Z,101241.86
2019-06-07T12:38:54.593Z,101241.76
2019-06-07T12:41:32.387Z,101236.83
2019-06-07T12:44:10.047Z,101237.45
2019-06-07T12:46:42.423Z,101234.09
2019-06-07T12:49:15.088Z,101228.32
2019-06-07T12:51:47.487Z,101231.34
2019-06-07T12:54:20.058Z,101226.02
2019-06-07T12:56:52.857Z,101225.09
2019-06-07T12:59:30.410Z,101222.84
2019-06-07T13:02:03.568Z,101208.77
2019-06-07T13:04:41.661Z,101208.15
2019-06-07T13:07:18.061Z,101199.89
2019-06-07T13:10:02.242Z,101190.66
2019-06-07T13:12:37.355Z,101183.25
2019-06-07T13:15:10.459Z,101189.52
2019-06-07T13:17:42.924Z,101178.25
2019-06-07T13:20:16.186Z,101177.18
2019-06-07T13:22:49.867Z,101172.05
2019-06-07T13:25:43.539Z,101176.33
2019-06-07T13:28:00.042Z,101183.55
2019-06-07T13:30:36.483Z,101190.02
2019-06-07T13:33:11.447Z,101186.81
2019-06-07T13:35:45.232Z,101175.30
2019-06-07T13:38:28.880Z,101181.47
2019-06-07T13:41:02.169Z,101187.34
2019-06-07T13:43:35.529Z,101187.48
2019-06-07T13:46:07.868Z,101183.24
2019-06-07T13:48:44.274Z,101187.01
2019-06-07T13:51:18.983Z,101191.42
2019-06-07T13:53:52.827Z,101186.06
2019-06-07T13:56:26.047Z,101183.55
2019-06-07T13:58:59.372Z,101184.52
2019-06-07T14:01:31.781Z,101182.69
2019-06-07T14:04:05.141Z,101177.05
2019-06-07T14:06:37.472Z,101180.63
2019-06-07T14:09:11.245Z,101172.78
2019-06-07T14:11:50.625Z,101167.12
2019-06-07T14:14:20.215Z,101167.80
2019-06-07T14:16:54.614Z,101170.87
2019-06-07T14:19:27.011Z,101164.00
2019-06-07T14:22:02.992Z,101158.23
2019-06-07T14:24:35.441Z,101155.37
2019-06-07T14:27:07.857Z,101152.27
2019-06-07T14:29:40.787Z,101145.09
2019-06-07T14:32:13.198Z,101147.68
2019-06-07T14:34:45.549Z,101148.75
2019-06-07T14:37:19.969Z,101145.36
2019-06-07T14:39:52.355Z,101154.23
2019-06-07T14:42:25.355Z,101158.33
2019-06-07T14:44:57.987Z,101188.83
2019-06-07T14:47:30.298Z,101198.20
2019-06-07T14:50:08.315Z,101239.53
2019-06-07T14:52:41.605Z,101227.13
2019-06-07T14:55:13.996Z,101194.91
2019-06-07T14:57:46.411Z,101189.75
2019-06-07T15:00:20.387Z,101186.02
2019-06-07T15:02:52.685Z,101200.81
2019-06-07T15:05:28.636Z,101211.98
2019-06-07T15:08:01.075Z,101219.64
2019-06-07T15:10:34.007Z,101207.95
2019-06-07T15:13:07.609Z,101199.37
2019-06-07T15:15:40.032Z,101197.76
2019-06-07T15:18:12.720Z,101201.56
2019-06-07T15:20:46.272Z,101209.08
2019-06-07T15:23:18.564Z,101207.72
2019-06-07T15:25:51.166Z,101215.45
2019-06-07T15:28:23.648Z,101208.16
2019-06-07T15:30:56.038Z,101210.13
2019-06-07T15:33:29.694Z,101215.05
2019-06-07T15:36:04.304Z,101218.45
2019-06-07T15:38:37.176Z,101223.41
2019-06-07T15:41:09.759Z,101220.07
2019-06-07T15:43:42.418Z,101229.94
2019-06-07T15:46:14.746Z,101226.48
2019-06-07T15:48:47.074Z,101221.70
2019-06-07T15:51:19.572Z,101215.52
2019-06-07T15:53:52.811Z,101215.27
2019-06-07T15:56:25.102Z,101213.12
2019-06-07T15:58:57.464Z,101212.56
2019-06-07T16:01:31.108Z,101201.89
2019-06-07T16:04:03.493Z,101201.42
2019-06-07T16:06:36.277Z,101184.94
2019-06-07T16:09:09.152Z,101192.31
2019-06-07T16:11:43.644Z,101197.00
2019-06-07T16:14:17.582Z,101196.70
2019-06-07T16:16:49.923Z,101197.97
2019-06-07T16:19:22.220Z,101197.89
2019-06-07T16:21:54.533Z,101191.80
2019-06-07T16:24:29.612Z,101192.91
2019-06-07T16:27:04.923Z,101197.41
2019-06-07T16:29:38.518Z,101188.73
2019-06-07T16:32:12.023Z,101187.20
2019-06-07T16:34:45.881Z,101185.37
2019-06-07T16:37:18.497Z,101196.67
2019-06-07T16:39:54.053Z,101202.98
2019-06-07T16:42:26.462Z,101201.12
2019-06-07T16:45:00.132Z,101207.31
2019-06-07T16:47:37.038Z,101212.61
2019-06-07T16:50:14.762Z,101208.36
2019-06-07T16:52:49.214Z,101209.43
2019-06-07T16:55:22.550Z,101220.45
2019-06-07T16:57:54.862Z,101222.11
2019-06-07T17:00:27.648Z,101228.61
2019-06-07T17:02:59.908Z,101232.48
2019-06-07T17:05:32.352Z,101231.67
2019-06-07T17:08:05.714Z,101231.67
2019-06-07T17:10:38.241Z,101227.73
2019-06-07T17:13:10.676Z,101226.88
2019-06-07T17:15:44.934Z,101231.26
2019-06-07T17:18:19.019Z,101227.66
2019-06-07T17:20:51.334Z,101235.18
2019-06-07T17:23:23.654Z,101232.82
2019-06-07T17:25:57.125Z,101235.92
2019-06-07T17:28:29.646Z,101236.73
2019-06-07T17:31:02.085Z,101236.80
2019-06-07T17:33:35.356Z,101243.67
2019-06-07T17:36:07.786Z,101242.73
2019-06-07T17:38:40.453Z,101245.01
2019-06-07T17:41:13.847Z,101244.88
2019-06-07T17:43:56.396Z,101246.05
2019-06-07T17:46:20.291Z,101246.64
2019-06-07T17:48:53.262Z,101245.27
2019-06-07T17:51:26.555Z,101246.63
2019-06-07T17:53:59.970Z,101249.05
2019-06-07T17:56:32.478Z,101253.41
2019-06-07T17:59:06.221Z,101258.38
2019-06-07T18:01:41.683Z,101256.69
2019-06-07T18:04:14.149Z,101247.54
2019-06-07T18:06:47.364Z,101261.61
2019-06-07T18:09:20.519Z,101265.67
2019-06-07T18:11:55.958Z,101259.20
2019-06-07T18:14:28.312Z,101264.09
2019-06-07T18:17:01.679Z,101269.69
2019-06-07T18:19:34.037Z,101267.53
2019-06-07T18:22:06.411Z,101268.69
2019-06-07T18:24:39.780Z,101278.42
2019-06-07T18:27:12.013Z,101272.77
2019-06-07T18:29:44.315Z,101273.95
2019-06-07T18:32:16.658Z,101279.05
2019-06-07T18:34:48.907Z,101290.26
2019-06-07T18:37:21.264Z,101289.67
2019-06-07T18:39:53.616Z,101289.96
2019-06-07T18:42:25.779Z,101291.74
2019-06-07T18:44:59.348Z,101287.20
2019-06-07T18:47:31.761Z,101289.33
2019-06-07T18:50:05.543Z,101287.41
2019-06-07T18:52:39.454Z,101286.20
2019-06-07T18:55:13.358Z,101292.08
2019-06-07T18:57:48.047Z,101293.11
2019-06-07T19:00:23.321Z,101292.72
2019-06-07T19:02:56.124Z,101288.58
2019-06-07T19:05:28.672Z,101292.65
2019-06-07T19:08:00.950Z,101290.41
2019-06-07T19:10:33.195Z,101299.17
2019-06-07T19:13:05.651Z,101298.42
2019-06-07T19:15:38.072Z,101297.95
2019-06-07T19:18:10.364Z,101304.08
2019-06-07T19:20:42.640Z,101303.36
2019-06-07T19:23:14.909Z,101306.41
2019-06-07T19:25:48.392Z,101305.07
2019-06-07T19:28:20.688Z,101299.95
2019-06-07T19:30:53.088Z,101309.27
2019-06-07T19:33:25.384Z,101313.22
2019-06-07T19:35:57.631Z,101304.47
2019-06-07T19:38:29.845Z,101310.47
2019-06-07T19:41:18.041Z,101317.09
2019-06-07T19:43:38.207Z,101314.56
2019-06-07T19:46:10.431Z,101312.20
2019-06-07T19:48:42.688Z,101315.15
2019-06-07T19:51:14.997Z,101314.16
2019-06-07T19:53:47.312Z,101314.05
2019-06-07T19:56:19.556Z,101321.42
2019-06-07T19:58:53.836Z,101324.22
2019-06-07T20:01:26.122Z,101318.08
2019-06-07T20:03:58.413Z,101328.51
2019-06-07T20:06:30.588Z,101325.98
2019-06-07T20:09:04.861Z,101327.70
2019-06-07T20:11:37.474Z,101325.73
2019-06-07T20:14:09.742Z,101323.55
2019-06-07T20:16:41.965Z,101323.94
2019-06-07T20:19:14.258Z,101327.61
2019-06-07T20:21:46.474Z,101332.25
2019-06-07T20:24:26.974Z,101335.72
2019-06-07T20:26:56.144Z,101334.09
2019-06-07T20:29:30.222Z,101337.27
2019-06-07T20:32:02.598Z,101335.17
2019-06-07T20:34:34.932Z,101335.45
2019-06-07T20:37:07.740Z,101348.98
2019-06-07T20:39:41.348Z,101345.86
2019-06-07T20:42:13.890Z,101337.05
2019-06-07T20:44:46.093Z,101332.51
2019-06-07T20:47:18.376Z,101327.46
2019-06-07T20:49:52.620Z,101333.02
2019-06-07T20:52:24.911Z,101334.38
2019-06-07T20:54:58.447Z,101330.05
2019-06-07T20:57:30.866Z,101332.14
2019-06-07T21:00:12.605Z,101325.63
2019-06-07T21:02:38.947Z,101314.78
2019-06-07T21:05:14.364Z,101323.39
2019-06-07T21:07:46.703Z,101320.67
2019-06-07T21:10:19.030Z,101321.64
2019-06-07T21:12:51.379Z,101325.34
2019-06-07T21:15:23.589Z,101314.75
2019-06-07T21:17:55.751Z,101309.34
2019-06-07T21:20:28.188Z,101317.70
2019-06-07T21:23:00.734Z,101318.16
2019-06-07T21:25:33.132Z,101308.22
2019-06-07T21:28:05.386Z,101311.16
2019-06-07T21:30:37.647Z,101303.81
2019-06-07T21:33:09.814Z,101311.59
2019-06-07T21:35:42.899Z,101306.14
2019-06-07T21:38:15.639Z,101320.86
2019-06-07T21:40:47.908Z,101308.61
2019-06-07T21:43:20.071Z,101308.61
2019-06-07T21:46:04.770Z,101319.33
2019-06-07T21:48:26.246Z,101321.16
2019-06-07T21:50:58.520Z,101316.84
2019-06-07T21:53:30.728Z,101313.75
2019-06-07T21:56:04.848Z,101313.75
2019-06-07T21:58:37.143Z,101314.13
2019-06-07T22:01:12.378Z,101322.63
2019-06-07T22:03:47.441Z,101317.57
2019-06-07T22:06:19.738Z,101324.57
2019-06-07T22:08:52.106Z,101321.87
2019-06-07T22:11:24.391Z,101318.17
2019-06-07T22:13:56.633Z,101324.47
2019-06-07T22:16:29.568Z,101323.34
2019-06-07T22:19:01.851Z,101326.92
2019-06-07T22:21:34.025Z,101326.27
2019-06-07T22:24:06.852Z,101314.93
2019-06-07T22:26:39.292Z,101317.34
2019-06-07T22:29:12.416Z,101316.48
2019-06-07T22:31:45.843Z,101311.68
2019-06-07T22:34:19.197Z,101314.72
2019-06-07T22:36:51.654Z,101312.61
2019-06-07T22:39:23.811Z,101317.66
2019-06-07T22:41:55.999Z,101306.47
2019-06-07T22:44:28.287Z,101311.22
2019-06-07T22:47:01.585Z,101313.40
2019-06-07T22:49:33.849Z,101315.05
2019-06-07T22:52:09.372Z,101304.13
2019-06-07T22:54:41.210Z,101304.16
2019-06-07T22:57:16.673Z,101311.16
2019-06-07T22:59:50.068Z,101304.95
2019-06-07T23:02:22.401Z,101308.16
2019-06-07T23:04:54.686Z,101312.17
2019-06-07T23:07:26.983Z,101309.44
2019-06-07T23:09:59.303Z,101314.34
2019-06-07T23:12:31.617Z,101310.28
2019-06-07T23:15:04.975Z,101311.15
2019-06-07T23:17:37.240Z,101318.17
2019-06-07T23:20:11.786Z,101310.69
2019-06-07T23:22:44.267Z,101312.50
2019-06-07T23:25:20.923Z,101311.95
2019-06-07T23:27:50.735Z,101324.20
2019-06-07T23:30:23.249Z,101320.32
2019-06-07T23:32:55.438Z,101322.70
2019-06-07T23:35:27.734Z,101318.44
2019-06-07T23:37:59.942Z,101323.05
2019-06-07T23:40:32.220Z,101326.91
2019-06-07T23:43:04.385Z,101317.33
2019-06-07T23:45:37.647Z,101326.51
2019-06-07T23:48:09.831Z,101325.75
2019-06-07T23:50:43.133Z,101324.39
2019-06-07T23:53:15.652Z,101316.33
2019-06-07T23:55:48.000Z,101316.33
2019-06-07T23:58:20.574Z,101312.67
